North Hills, New York
Current Conditions -  °F | °C
As of 7:51 AM on Saturday 20 Dec 2014 (Local Time) from KJFK Reporting Station
Overcast Overcast  
Wind Chill: 23°   Ceiling: 2700
Heat Index: 32°   Visibility: 10mi
Dew Point: 19°   Wind: 12mph
Humidity: 59%   Direction: 10°N
Pressure: 30.28"   Gusts: NA
Location:  40.7459°N, 73.6798°W
Report Text: KJFK 201251Z 01010KT 10SM OVC027 00/M07 A3028 RMK AO2 SLP252 T00001072 $
Loading
Personal Weather Stations






























Interactive Weather Map New forecast layout! Learn more

10-Day Weather Forecast

Advertisements
Track Severe Weather on mobile